Time;durP1;ratioP1;P1;durP2;ratioP2;P2;SDS_P1;SDS_P2;PMS_P1;PMS_P2;Temp;Humidity;BMP_temperature;BMP_pressure;BME280_temperature;BME280_humidity;BME280_pressure;Samples;Min_cycle;Max_cycle;Signal;HPM_P1;HPM_P2
2023/03/08 00:01:17;;;;;;;8.10;1.70;;;;;;;1.52;96.57;99242.06;5073981;28;20481;-71
2023/03/08 00:03:44;;;;;;;12.30;1.23;;;;;;;1.47;97.42;99239.44;5074018;28;20441;-71
2023/03/08 00:06:13;;;;;;;6.70;1.40;;;;;;;1.45;98.27;99241.56;5073658;28;20477;-72
2023/03/08 00:08:40;;;;;;;5.93;1.40;;;;;;;1.43;97.92;99243.72;5073895;28;20532;-71
2023/03/08 00:11:09;;;;;;;8.37;1.47;;;;;;;1.42;98.34;99246.66;5073898;28;20433;-71
2023/03/08 00:13:36;;;;;;;7.03;1.57;;;;;;;1.35;98.48;99244.28;5073558;28;20433;-72
2023/03/08 00:16:04;;;;;;;5.70;1.30;;;;;;;1.34;99.12;99252.56;5073760;28;20447;-71
2023/03/08 00:18:31;;;;;;;6.90;2.07;;;;;;;1.35;99.01;99256.81;5073774;28;20441;-71
2023/03/08 00:20:59;;;;;;;5.63;1.27;;;;;;;1.30;99.47;99259.50;5073367;28;20493;-70
2023/03/08 00:23:26;;;;;;;5.70;1.37;;;;;;;1.29;99.07;99253.38;5073653;28;20821;-70
2023/03/08 00:25:52;;;;;;;6.30;1.47;;;;;;;1.28;99.69;99259.78;5073328;28;20477;-70
2023/03/08 00:28:20;;;;;;;4.90;1.10;;;;;;;1.25;99.91;99258.47;5073130;28;20567;-70
2023/03/08 00:30:55;;;;;;;5.40;1.60;;;;;;;1.24;99.41;99259.53;5072855;28;20467;-70
2023/03/08 00:33:21;;;;;;;11.13;1.60;;;;;;;1.21;99.35;99264.59;5073084;28;20453;-71
2023/03/08 00:35:55;;;;;;;6.57;1.87;;;;;;;1.21;99.74;99264.59;5073464;28;20544;-71
2023/03/08 00:38:21;;;;;;;5.23;1.30;;;;;;;1.19;99.90;99264.88;5073407;28;20472;-71
2023/03/08 00:40:48;;;;;;;7.40;2.40;;;;;;;1.20;100.00;99276.34;5073246;28;20536;-70
2023/03/08 00:43:14;;;;;;;16.53;2.30;;;;;;;1.19;99.86;99278.19;5073029;28;20956;-71
2023/03/08 00:45:42;;;;;;;7.80;1.83;;;;;;;1.14;100.00;99272.09;5073072;28;20441;-71
2023/03/08 00:48:09;;;;;;;6.00;2.07;;;;;;;1.16;99.77;99276.09;5073000;28;20461;-71
2023/03/08 00:50:35;;;;;;;6.57;1.80;;;;;;;1.17;100.00;99276.88;5072933;28;20960;-71
2023/03/08 00:53:02;;;;;;;10.43;2.73;;;;;;;1.15;100.00;99277.16;5073270;28;20539;-71
2023/03/08 00:55:29;;;;;;;7.67;2.10;;;;;;;1.19;100.00;99280.88;5073291;28;20540;-72
2023/03/08 00:57:55;;;;;;;7.57;2.50;;;;;;;1.17;100.00;99277.69;5072806;28;20501;-71
2023/03/08 01:00:23;;;;;;;9.90;1.70;;;;;;;1.10;100.00;99277.16;5073230;28;20558;-71
2023/03/08 01:02:51;;;;;;;7.80;2.03;;;;;;;1.16;100.00;99284.09;5073069;28;20928;-71
2023/03/08 01:05:17;;;;;;;11.00;2.40;;;;;;;1.10;100.00;99287.81;5073146;28;20445;-71
2023/03/08 01:07:44;;;;;;;7.13;1.83;;;;;;;1.09;100.00;99291.56;5072763;28;20471;-71
2023/03/08 01:10:11;;;;;;;6.60;1.97;;;;;;;1.06;100.00;99294.75;5073105;28;20448;-71
2023/03/08 01:12:38;;;;;;;9.47;2.50;;;;;;;1.09;100.00;99298.78;5072842;28;20449;-71
2023/03/08 01:15:07;;;;;;;7.67;2.20;;;;;;;1.04;100.00;99296.91;5073067;28;20888;-71
2023/03/08 01:17:33;;;;;;;6.80;1.87;;;;;;;1.06;100.00;99300.09;5072677;28;20843;-71
2023/03/08 01:20:03;;;;;;;8.63;2.03;;;;;;;1.08;100.00;99300.63;5072992;28;20449;-71
2023/03/08 01:22:30;;;;;;;6.03;2.17;;;;;;;1.06;100.00;99297.44;5072850;28;20521;-71
2023/03/08 01:24:56;;;;;;;8.33;2.20;;;;;;;1.00;100.00;99306.50;5072993;28;20444;-71
2023/03/08 01:27:23;;;;;;;8.00;2.60;;;;;;;0.99;100.00;99297.72;5072918;28;20453;-71
2023/03/08 01:29:50;;;;;;;8.10;2.40;;;;;;;1.04;100.00;99298.78;5072920;28;20447;-71
2023/03/08 01:32:16;;;;;;;7.30;2.23;;;;;;;0.99;100.00;99299.59;5072702;28;20434;-71
2023/03/08 01:34:43;;;;;;;7.33;2.63;;;;;;;0.94;100.00;99296.94;5074332;28;20430;-71
2023/03/08 01:37:11;;;;;;;8.43;2.30;;;;;;;0.89;100.00;99303.06;5072431;28;20457;-70
2023/03/08 01:39:37;;;;;;;6.80;2.40;;;;;;;0.84;100.00;99303.09;5072861;28;20441;-71
2023/03/08 01:42:06;;;;;;;7.30;3.00;;;;;;;0.77;100.00;99302.56;5076202;28;21101;-71
2023/03/08 01:44:49;;;;;;;8.27;2.10;;;;;;;0.75;100.00;99304.66;5076783;28;20441;-71
2023/03/08 01:47:18;;;;;;;5.30;1.80;;;;;;;0.80;100.00;99306.53;5076321;28;20499;-71
2023/03/08 01:49:45;;;;;;;7.40;2.87;;;;;;;0.78;100.00;99300.69;5076644;28;20433;-71
2023/03/08 01:52:17;;;;;;;8.00;2.07;;;;;;;0.73;100.00;99304.16;5076568;28;20443;-71
2023/03/08 01:54:47;;;;;;;7.70;2.60;;;;;;;0.74;100.00;99300.41;5076514;28;20426;-71
2023/03/08 01:57:18;;;;;;;13.23;3.50;;;;;;;0.71;100.00;99307.09;5076398;28;20567;-71
2023/03/08 01:59:47;;;;;;;8.73;3.00;;;;;;;0.67;100.00;99311.34;5076265;28;20425;-71
2023/03/08 02:02:14;;;;;;;8.07;2.20;;;;;;;0.63;100.00;99304.97;5076035;28;20577;-71
2023/03/08 02:04:41;;;;;;;7.57;2.90;;;;;;;0.70;100.00;99305.47;5076561;28;20445;-71
2023/03/08 02:07:07;;;;;;;7.70;2.43;;;;;;;0.72;100.00;99310.56;5076291;28;20465;-71
2023/03/08 02:09:36;;;;;;;10.30;2.83;;;;;;;0.79;100.00;99315.59;5076200;28;20437;-70
2023/03/08 02:12:06;;;;;;;7.53;2.40;;;;;;;0.79;100.00;99310.28;5075876;28;20930;-71
2023/03/08 02:14:32;;;;;;;13.03;3.10;;;;;;;0.77;100.00;99315.09;5076096;28;20471;-71
2023/03/08 02:16:59;;;;;;;7.80;2.70;;;;;;;0.73;100.00;99314.81;5075816;28;20456;-71
2023/03/08 02:19:32;;;;;;;8.57;3.17;;;;;;;0.79;100.00;99312.94;5075884;28;20441;-71
2023/03/08 02:21:59;;;;;;;6.13;2.10;;;;;;;0.83;100.00;99312.13;5076039;28;20461;-71
2023/03/08 02:24:27;;;;;;;9.33;2.77;;;;;;;0.80;100.00;99311.84;5075978;28;20449;-71
2023/03/08 02:27:02;;;;;;;17.13;2.97;;;;;;;0.79;100.00;99311.06;5075895;28;20615;-70
2023/03/08 02:29:28;;;;;;;7.83;2.93;;;;;;;0.78;100.00;99306.81;5075678;28;20919;-71
2023/03/08 02:31:55;;;;;;;8.93;2.80;;;;;;;0.74;100.00;99317.19;5075612;28;20441;-71
2023/03/08 02:34:21;;;;;;;9.10;3.17;;;;;;;0.77;100.00;99313.22;5075388;28;20449;-71
2023/03/08 02:36:48;;;;;;;6.80;2.80;;;;;;;0.74;100.00;99322.53;5075669;28;20548;-71
2023/03/08 02:39:15;;;;;;;10.90;3.20;;;;;;;0.74;100.00;99335.06;5075796;28;20815;-71
2023/03/08 02:41:43;;;;;;;13.50;3.30;;;;;;;0.70;100.00;99329.44;5075238;28;21016;-71
2023/03/08 02:44:09;;;;;;;11.50;3.83;;;;;;;0.74;100.00;99327.84;5074675;28;20492;-71
2023/03/08 02:46:36;;;;;;;9.50;3.47;;;;;;;0.79;100.00;99328.94;5075467;28;20461;-71
2023/03/08 02:49:03;;;;;;;12.43;3.97;;;;;;;0.79;100.00;99331.59;5075298;28;20453;-71
2023/03/08 02:51:29;;;;;;;11.60;4.13;;;;;;;0.74;100.00;99333.19;5075283;28;20532;-72
2023/03/08 02:53:56;;;;;;;18.10;3.70;;;;;;;0.81;100.00;99332.13;5074742;28;20477;-71
2023/03/08 02:56:22;;;;;;;10.77;4.30;;;;;;;0.89;100.00;99327.06;5075314;28;20496;-72
2023/03/08 02:58:50;;;;;;;9.30;3.80;;;;;;;0.92;100.00;99326.50;5075321;28;20452;-72
2023/03/08 03:01:17;;;;;;;12.60;4.63;;;;;;;0.94;100.00;99321.72;5075330;28;20445;-71
2023/03/08 03:03:43;;;;;;;11.47;5.10;;;;;;;0.95;100.00;99319.84;5075189;28;20578;-72
2023/03/08 03:06:15;;;;;;;9.70;3.40;;;;;;;1.00;100.00;99325.19;5075203;28;20448;-72
2023/03/08 03:08:41;;;;;;;11.63;4.40;;;;;;;0.99;100.00;99328.91;5075251;28;20430;-72
2023/03/08 03:11:12;;;;;;;11.07;4.57;;;;;;;1.01;100.00;99329.44;5075139;28;20477;-71
2023/03/08 03:13:38;;;;;;;11.33;4.13;;;;;;;1.01;100.00;99326.78;5075120;28;20430;-71
2023/03/08 03:16:08;;;;;;;11.37;4.97;;;;;;;1.04;100.00;99331.56;5074935;28;20524;-71
2023/03/08 03:18:35;;;;;;;13.83;5.20;;;;;;;1.00;100.00;99333.19;5074973;28;20785;-72
2023/03/08 03:21:04;;;;;;;15.30;4.53;;;;;;;0.95;100.00;99331.31;5074911;28;20789;-71
2023/03/08 03:23:30;;;;;;;10.70;4.20;;;;;;;0.95;100.00;99333.19;5074781;28;20485;-72
2023/03/08 03:25:57;;;;;;;11.80;4.87;;;;;;;0.95;100.00;99333.19;5074486;28;20445;-71
2023/03/08 03:28:24;;;;;;;10.27;4.30;;;;;;;1.04;100.00;99331.56;5074715;28;20459;-71
2023/03/08 03:30:50;;;;;;;12.40;4.10;;;;;;;1.00;100.00;99333.97;5074736;28;20444;-72
2023/03/08 03:33:18;;;;;;;19.83;5.33;;;;;;;0.96;100.00;99338.25;5074412;28;20823;-71
2023/03/08 03:35:45;;;;;;;11.40;4.00;;;;;;;0.96;100.00;99340.09;5074590;28;20532;-72
2023/03/08 03:38:11;;;;;;;12.60;4.83;;;;;;;0.93;100.00;99346.78;5074562;28;20523;-71
2023/03/08 03:40:38;;;;;;;9.80;4.30;;;;;;;0.95;100.00;99349.19;5074123;28;20453;-71
2023/03/08 03:43:05;;;;;;;17.93;4.27;;;;;;;0.94;100.00;99358.25;5074091;28;20957;-71
2023/03/08 03:45:31;;;;;;;10.27;4.57;;;;;;;0.88;100.00;99348.63;5074032;28;20524;-71
2023/03/08 03:47:58;;;;;;;8.37;3.67;;;;;;;0.85;100.00;99359.84;5074246;28;20492;-71
2023/03/08 03:50:26;;;;;;;11.30;5.43;;;;;;;0.79;100.00;99361.69;5073993;28;20449;-71
2023/03/08 03:52:52;;;;;;;10.43;4.57;;;;;;;0.79;100.00;99358.25;5074312;28;20433;-71
2023/03/08 03:55:19;;;;;;;11.93;5.53;;;;;;;0.73;100.00;99362.78;5074208;28;20436;-71
2023/03/08 03:57:45;;;;;;;11.43;5.50;;;;;;;0.72;100.00;99367.31;5074054;28;20468;-71
2023/03/08 04:00:13;;;;;;;9.40;4.07;;;;;;;0.71;100.00;99363.06;5074198;28;20456;-71
2023/03/08 04:02:40;;;;;;;25.40;5.30;;;;;;;0.72;100.00;99367.31;5073611;28;20568;-71
2023/03/08 04:05:07;;;;;;;11.53;4.90;;;;;;;0.68;100.00;99370.78;5073154;28;20437;-71
2023/03/08 04:07:35;;;;;;;17.27;4.40;;;;;;;0.72;100.00;99361.97;5073572;28;20472;-71
2023/03/08 04:10:02;;;;;;;14.43;6.00;;;;;;;0.73;100.00;99368.91;5073967;28;20528;-71
2023/03/08 04:12:29;;;;;;;14.60;4.80;;;;;;;0.71;100.00;99371.03;5073866;28;20468;-71
2023/03/08 04:14:55;;;;;;;12.40;5.23;;;;;;;0.79;100.00;99376.91;5073863;28;20465;-71
2023/03/08 04:17:22;;;;;;;11.23;4.33;;;;;;;0.84;100.00;99375.06;5073698;28;20500;-70
2023/03/08 04:19:49;;;;;;;10.93;5.10;;;;;;;0.84;100.00;99379.56;5073710;28;20444;-72
2023/03/08 04:22:16;;;;;;;16.53;5.17;;;;;;;0.85;100.00;99381.19;5073552;28;20484;-72
2023/03/08 04:24:44;;;;;;;10.90;4.37;;;;;;;0.85;100.00;99376.66;5073352;28;20444;-72
2023/03/08 04:27:10;;;;;;;13.60;5.20;;;;;;;0.84;100.00;99369.72;5073576;28;20482;-72
2023/03/08 04:29:37;;;;;;;11.73;4.40;;;;;;;0.82;100.00;99376.38;5073526;28;20443;-72
2023/03/08 04:32:04;;;;;;;15.27;5.97;;;;;;;0.77;100.00;99377.16;5073105;28;20445;-72
2023/03/08 04:34:31;;;;;;;17.90;5.97;;;;;;;0.69;100.00;99386.47;5073505;28;20430;-72
2023/03/08 04:36:57;;;;;;;11.20;3.97;;;;;;;0.65;100.00;99380.09;5073311;28;20468;-72
2023/03/08 04:39:24;;;;;;;11.90;4.80;;;;;;;0.60;100.00;99380.09;5073398;28;20437;-72
2023/03/08 04:41:52;;;;;;;13.43;5.53;;;;;;;0.57;100.00;99369.94;5072921;28;20895;-72
2023/03/08 04:44:18;;;;;;;9.27;4.53;;;;;;;0.44;100.00;99362.47;5073333;28;20847;-73
2023/03/08 04:46:45;;;;;;;11.47;5.30;;;;;;;0.38;100.00;99361.69;5073199;28;20508;-73
2023/03/08 04:49:11;;;;;;;10.37;4.40;;;;;;;0.29;100.00;99373.13;5073248;28;20453;-73
2023/03/08 04:51:38;;;;;;;14.63;4.47;;;;;;;0.23;100.00;99364.31;5073211;28;20823;-73
2023/03/08 04:54:05;;;;;;;16.23;5.43;;;;;;;0.24;100.00;99360.59;5073217;28;20532;-70
2023/03/08 04:56:31;;;;;;;12.77;4.70;;;;;;;0.24;100.00;99363.25;5073158;28;20851;-70
2023/03/08 04:58:59;;;;;;;13.07;4.73;;;;;;;0.19;100.00;99358.72;5072963;28;20965;-71
2023/03/08 05:01:26;;;;;;;12.67;4.63;;;;;;;0.12;100.00;99362.69;5073243;28;20888;-71
2023/03/08 05:03:53;;;;;;;18.40;5.00;;;;;;;0.03;100.00;99362.38;5073137;28;20874;-71
2023/03/08 05:06:21;;;;;;;12.80;4.87;;;;;;;0.01;100.00;99359.19;5073393;28;20511;-71
2023/03/08 05:08:48;;;;;;;15.87;5.30;;;;;;;-0.05;100.00;99353.03;5073017;28;20899;-71
2023/03/08 05:11:18;;;;;;;13.43;4.70;;;;;;;-0.10;100.00;99360.22;5073332;28;20443;-70
2023/03/08 05:13:45;;;;;;;10.07;3.87;;;;;;;-0.16;100.00;99356.75;5073503;28;20490;-71
2023/03/08 05:16:13;;;;;;;14.10;5.30;;;;;;;-0.26;100.00;99362.84;5073027;28;20469;-71
2023/03/08 05:18:40;;;;;;;12.33;4.33;;;;;;;-0.23;100.00;99361.50;5072947;28;20447;-70
2023/03/08 05:21:09;;;;;;;11.63;4.77;;;;;;;-0.21;100.00;99367.38;5073372;28;20473;-70
2023/03/08 05:23:36;;;;;;;12.10;4.60;;;;;;;-0.20;100.00;99376.94;5073431;28;20483;-71
2023/03/08 05:26:04;;;;;;;14.10;6.00;;;;;;;-0.24;100.00;99369.75;5072541;28;20528;-70
2023/03/08 05:28:33;;;;;;;12.70;5.70;;;;;;;-0.29;100.00;99376.66;5072534;28;20528;-70
2023/03/08 05:31:01;;;;;;;13.90;5.00;;;;;;;-0.27;100.00;99373.72;5072931;28;20495;-71
2023/03/08 05:33:29;;;;;;;15.40;4.60;;;;;;;-0.26;100.00;99376.13;5072521;28;20468;-71
2023/03/08 05:35:56;;;;;;;10.43;4.53;;;;;;;-0.32;100.00;99373.69;5072855;28;20441;-70
2023/03/08 05:38:23;;;;;;;12.90;4.50;;;;;;;-0.43;100.00;99375.53;5072594;28;20469;-70
2023/03/08 05:40:50;;;;;;;11.90;4.90;;;;;;;-0.45;100.00;99371.50;5072728;28;20445;-70
2023/03/08 05:43:18;;;;;;;12.60;4.43;;;;;;;-0.41;100.00;99380.56;5072674;28;20579;-70
2023/03/08 05:45:54;;;;;;;11.97;5.07;;;;;;;-0.29;100.00;99381.97;5072660;28;20463;-70
2023/03/08 05:48:21;;;;;;;11.87;3.73;;;;;;;-0.21;100.00;99382.53;5072654;28;20483;-70
2023/03/08 05:50:49;;;;;;;10.53;4.60;;;;;;;-0.20;100.00;99382.28;5072602;28;20441;-69
2023/03/08 05:53:15;;;;;;;11.00;4.33;;;;;;;-0.20;100.00;99386.78;5072609;28;20536;-70
2023/03/08 05:55:42;;;;;;;8.90;3.47;;;;;;;-0.14;100.00;99389.19;5072231;28;20981;-70
2023/03/08 05:58:09;;;;;;;9.57;4.20;;;;;;;-0.11;100.00;99394.00;5072425;28;20467;-70
2023/03/08 06:00:35;;;;;;;11.50;4.40;;;;;;;-0.13;100.00;99393.50;5072231;28;20448;-70
2023/03/08 06:03:03;;;;;;;12.63;4.03;;;;;;;-0.11;100.00;99390.56;5072254;28;20481;-70
2023/03/08 06:05:30;;;;;;;10.73;4.37;;;;;;;-0.10;100.00;99389.50;5072491;28;20449;-70
2023/03/08 06:07:58;;;;;;;12.50;4.10;;;;;;;-0.11;100.00;99391.34;5072464;28;20492;-70
2023/03/08 06:10:25;;;;;;;10.47;4.30;;;;;;;-0.07;100.00;99394.31;5072536;28;20808;-70
2023/03/08 06:12:52;;;;;;;10.17;4.60;;;;;;;-0.07;100.00;99387.13;5072548;28;20472;-70
2023/03/08 06:15:18;;;;;;;10.00;3.70;;;;;;;-0.06;100.00;99391.38;5072387;28;20433;-70
2023/03/08 06:17:45;;;;;;;10.87;4.17;;;;;;;-0.02;100.00;99397.78;5072059;28;21066;-70
2023/03/08 06:20:14;;;;;;;10.63;4.97;;;;;;;0.00;100.00;99400.19;5072479;28;20613;-70
2023/03/08 06:22:40;;;;;;;9.67;3.97;;;;;;;0.03;100.00;99402.31;5072339;28;20441;-70
2023/03/08 06:25:09;;;;;;;11.03;4.47;;;;;;;0.08;100.00;99402.31;5072091;28;20441;-70
2023/03/08 06:27:36;;;;;;;14.53;5.43;;;;;;;0.07;100.00;99405.25;5073443;28;20503;-70
2023/03/08 06:30:02;;;;;;;12.40;4.63;;;;;;;0.13;100.00;99412.19;5075893;28;20445;-70
2023/03/08 06:32:29;;;;;;;14.30;5.63;;;;;;;0.15;100.00;99410.88;5075712;28;20547;-70
2023/03/08 06:34:55;;;;;;;13.90;5.10;;;;;;;0.16;100.00;99412.47;5075477;28;20441;-70
2023/03/08 06:37:22;;;;;;;13.00;5.53;;;;;;;0.22;100.00;99411.44;5075646;28;20552;-70
2023/03/08 06:39:49;;;;;;;11.60;4.57;;;;;;;0.29;100.00;99407.72;5075358;28;20447;-70
2023/03/08 06:42:16;;;;;;;14.27;5.00;;;;;;;0.35;100.00;99414.66;5075709;28;20445;-69
2023/03/08 06:44:43;;;;;;;15.63;5.57;;;;;;;0.44;100.00;99411.25;5075518;28;20521;-69
2023/03/08 06:47:10;;;;;;;15.70;5.47;;;;;;;0.46;100.00;99405.63;5075513;28;20461;-70
2023/03/08 06:49:36;;;;;;;10.93;4.40;;;;;;;0.54;100.00;99409.66;5075266;28;20441;-69
2023/03/08 06:52:03;;;;;;;12.47;4.70;;;;;;;0.62;100.00;99406.44;5075501;28;20471;-70
2023/03/08 06:54:30;;;;;;;12.93;5.53;;;;;;;0.66;100.00;99400.31;5075444;28;20437;-70
2023/03/08 06:56:57;;;;;;;11.50;4.77;;;;;;;0.74;100.00;99401.69;5075351;28;20548;-70
2023/03/08 06:59:24;;;;;;;13.97;6.00;;;;;;;0.77;100.00;99398.50;5075123;28;20515;-70
2023/03/08 07:01:51;;;;;;;11.33;4.70;;;;;;;0.84;100.00;99398.22;5074999;28;20541;-70
2023/03/08 07:04:18;;;;;;;11.80;4.70;;;;;;;0.90;100.00;99402.50;5075251;28;20485;-70
2023/03/08 07:06:44;;;;;;;11.13;4.87;;;;;;;0.89;100.00;99392.91;5075187;28;20891;-70
2023/03/08 07:09:12;;;;;;;11.60;5.70;;;;;;;0.90;100.00;99400.63;5074856;28;20440;-70
2023/03/08 07:11:38;;;;;;;11.70;5.13;;;;;;;0.98;100.00;99396.63;5074817;28;20953;-70
2023/03/08 07:14:05;;;;;;;13.60;5.80;;;;;;;1.04;100.00;99398.22;5075097;28;20443;-70
2023/03/08 07:16:33;;;;;;;14.60;6.60;;;;;;;1.10;100.00;99402.47;5074977;28;20461;-70
2023/03/08 07:19:01;;;;;;;11.20;5.00;;;;;;;1.15;99.97;99394.50;5074983;28;20468;-70
2023/03/08 07:21:28;;;;;;;14.73;5.07;;;;;;;1.19;99.77;99398.19;5074653;28;20965;-70
2023/03/08 07:23:55;;;;;;;15.17;5.50;;;;;;;1.21;99.53;99401.41;5074847;28;20528;-70
2023/03/08 07:26:21;;;;;;;18.27;5.47;;;;;;;1.25;99.25;99396.34;5074803;28;20550;-70
2023/03/08 07:28:50;;;;;;;12.00;5.07;;;;;;;1.32;99.18;99390.72;5074499;28;20822;-70
2023/03/08 07:31:17;;;;;;;11.53;4.80;;;;;;;1.37;99.45;99393.38;5074443;28;20952;-70
2023/03/08 07:33:45;;;;;;;13.63;4.60;;;;;;;1.42;99.31;99396.06;5075811;28;20461;-69
2023/03/08 07:36:12;;;;;;;14.17;5.73;;;;;;;1.46;100.00;99403.25;5074615;28;20437;-70
2023/03/08 07:38:39;;;;;;;11.20;5.50;;;;;;;1.52;98.99;99404.84;5074190;28;20445;-70
2023/03/08 07:41:05;;;;;;;13.17;4.90;;;;;;;1.58;99.41;99410.94;5074590;28;20473;-70
2023/03/08 07:43:32;;;;;;;18.33;5.53;;;;;;;1.61;97.96;99405.09;5074367;28;20480;-70
2023/03/08 07:46:00;;;;;;;12.07;5.33;;;;;;;1.62;98.05;99406.66;5074828;28;20437;-70
2023/03/08 07:48:27;;;;;;;15.40;5.60;;;;;;;1.64;98.00;99409.88;5074086;28;20448;-70
2023/03/08 07:50:54;;;;;;;19.43;7.00;;;;;;;1.68;97.33;99410.94;5074363;28;20446;-70
2023/03/08 07:53:21;;;;;;;15.17;5.20;;;;;;;1.69;96.74;99409.88;5074067;28;20939;-70
2023/03/08 07:55:48;;;;;;;14.93;5.10;;;;;;;1.76;97.51;99406.91;5074243;28;20451;-70
2023/03/08 07:58:14;;;;;;;10.10;4.67;;;;;;;1.83;97.35;99407.41;5074158;28;20484;-70
2023/03/08 08:00:41;;;;;;;15.63;6.23;;;;;;;1.90;96.73;99404.44;5074174;28;20451;-70
2023/03/08 08:03:07;;;;;;;10.37;4.37;;;;;;;2.00;96.41;99402.56;5074037;28;20448;-70
2023/03/08 08:05:35;;;;;;;11.47;5.07;;;;;;;2.08;95.86;99403.84;5074031;28;20450;-70
2023/03/08 08:08:03;;;;;;;11.03;5.80;;;;;;;2.21;95.29;99408.59;5073588;28;20488;-69
2023/03/08 08:10:30;;;;;;;12.43;5.00;;;;;;;2.32;94.72;99419.22;5074009;28;20965;-69
2023/03/08 08:12:56;;;;;;;13.40;5.60;;;;;;;2.32;94.20;99411.22;5073794;28;20441;-70
2023/03/08 08:15:24;;;;;;;15.20;5.93;;;;;;;2.42;93.11;99405.81;5073525;28;20810;-70
2023/03/08 08:17:51;;;;;;;12.83;5.67;;;;;;;2.50;92.89;99408.69;5073527;28;20553;-70
2023/03/08 08:20:18;;;;;;;10.47;4.93;;;;;;;2.54;92.81;99406.28;5073775;28;20466;-70
2023/03/08 08:22:45;;;;;;;14.23;4.63;;;;;;;2.64;92.46;99408.88;5073737;28;20477;-70
2023/03/08 08:25:13;;;;;;;10.47;3.97;;;;;;;2.75;92.10;99410.41;5073594;28;20563;-69
2023/03/08 08:27:39;;;;;;;19.10;5.27;;;;;;;2.84;92.05;99401.81;5073667;28;20476;-70
2023/03/08 08:30:07;;;;;;;15.97;5.83;;;;;;;2.90;91.44;99400.69;5073396;28;21033;-70
2023/03/08 08:32:34;;;;;;;13.63;6.03;;;;;;;2.93;91.24;99400.13;5073316;28;20453;-70
2023/03/08 08:35:01;;;;;;;14.10;5.53;;;;;;;2.94;91.36;99399.03;5073605;28;20819;-70
2023/03/08 08:37:27;;;;;;;13.30;4.70;;;;;;;2.97;92.10;99399.28;5073348;28;20465;-69
2023/03/08 08:39:54;;;;;;;20.47;5.60;;;;;;;3.04;91.79;99409.66;5073449;28;20441;-71
2023/03/08 08:42:22;;;;;;;11.60;4.60;;;;;;;3.04;88.07;99407.78;5073448;28;20445;-72
2023/03/08 08:44:48;;;;;;;12.80;5.00;;;;;;;3.04;87.03;99393.59;5073304;28;20481;-72
2023/03/08 08:47:15;;;;;;;10.07;4.20;;;;;;;3.00;85.57;99397.91;5072894;28;20465;-73
2023/03/08 08:49:42;;;;;;;11.13;4.20;;;;;;;3.02;83.64;99388.53;5072260;28;20441;-72
2023/03/08 08:52:08;;;;;;;10.40;4.00;;;;;;;2.98;82.36;99386.72;5072954;28;20452;-72
2023/03/08 08:54:38;;;;;;;10.40;3.50;;;;;;;3.10;82.70;99387.16;5072883;28;20465;-72
2023/03/08 08:57:05;;;;;;;15.33;6.47;;;;;;;3.20;82.16;99384.38;5072708;28;20872;-70
2023/03/08 08:59:33;;;;;;;10.17;4.33;;;;;;;3.25;80.71;99375.50;5072536;28;20437;-72
2023/03/08 09:02:00;;;;;;;8.93;3.63;;;;;;;3.31;81.47;99371.69;5072511;28;20433;-70
2023/03/08 09:04:26;;;;;;;10.10;3.80;;;;;;;3.35;79.51;99371.94;5072437;28;21053;-71
2023/03/08 09:06:53;;;;;;;11.97;4.40;;;;;;;3.35;78.88;99374.59;5072800;28;20464;-71
2023/03/08 09:09:19;;;;;;;11.30;4.30;;;;;;;3.38;78.75;99366.00;5072999;28;20441;-69
2023/03/08 09:11:47;;;;;;;7.93;2.67;;;;;;;3.44;77.28;99364.88;5072819;28;20445;-71
2023/03/08 09:14:14;;;;;;;9.80;3.63;;;;;;;3.47;78.31;99361.63;5072368;28;20437;-71
2023/03/08 09:16:42;;;;;;;9.20;2.67;;;;;;;3.58;77.53;99365.00;5072759;28;20834;-71
2023/03/08 09:19:09;;;;;;;7.40;2.60;;;;;;;3.64;77.61;99364.66;5072987;28;20448;-71
2023/03/08 09:21:36;;;;;;;5.90;1.83;;;;;;;3.68;76.36;99371.03;5072694;28;20449;-71
2023/03/08 09:24:05;;;;;;;12.70;4.60;;;;;;;3.71;73.99;99370.44;5072841;28;20591;-71
2023/03/08 09:26:33;;;;;;;7.70;2.30;;;;;;;3.79;75.19;99361.00;5072462;28;20532;-71
2023/03/08 09:29:04;;;;;;;7.87;2.73;;;;;;;3.92;76.52;99359.50;5072928;28;20533;-71
2023/03/08 09:31:31;;;;;;;7.60;2.33;;;;;;;4.04;76.67;99365.25;5072644;28;20981;-71
2023/03/08 09:33:59;;;;;;;8.00;2.47;;;;;;;4.13;75.87;99357.38;5072506;28;20458;-71
2023/03/08 09:36:27;;;;;;;6.33;1.97;;;;;;;4.19;74.27;99358.88;5072456;28;20457;-71
2023/03/08 09:38:54;;;;;;;7.70;2.90;;;;;;;4.24;75.09;99358.81;5072483;28;20449;-71
2023/03/08 09:41:39;;;;;;;8.43;3.17;;;;;;;4.36;74.04;99358.38;5072438;28;20437;-71
2023/03/08 09:44:16;;;;;;;9.37;2.60;;;;;;;4.52;73.50;99359.78;5072466;28;20477;-71
2023/03/08 09:46:46;;;;;;;7.50;2.63;;;;;;;4.61;73.33;99349.97;5072686;28;20467;-71
2023/03/08 09:49:19;;;;;;;6.10;2.30;;;;;;;4.73;72.93;99347.63;5072734;28;20437;-71
2023/03/08 09:51:50;;;;;;;8.60;1.93;;;;;;;4.61;69.76;99355.34;5072795;28;20425;-71
2023/03/08 09:54:21;;;;;;;7.40;2.40;;;;;;;4.80;70.54;99353.41;5072625;28;20810;-71
2023/03/08 09:56:50;;;;;;;7.90;2.57;;;;;;;4.86;70.96;99345.28;5072635;28;20493;-70
2023/03/08 09:59:25;;;;;;;7.20;2.70;;;;;;;4.96;67.91;99339.75;5072625;28;20445;-71
2023/03/08 10:01:58;;;;;;;8.60;2.57;;;;;;;5.11;67.44;99338.69;5072467;28;20906;-70
2023/03/08 10:04:39;;;;;;;8.40;2.90;;;;;;;5.13;68.12;99331.94;5076069;28;20461;-71
2023/03/08 10:07:18;;;;;;;10.83;2.90;;;;;;;5.06;66.42;99334.22;5076050;28;20472;-71
2023/03/08 10:09:52;;;;;;;8.07;2.80;;;;;;;4.92;66.03;99330.72;5076360;28;20429;-70
2023/03/08 10:12:28;;;;;;;6.37;2.27;;;;;;;4.95;68.29;99327.41;5075974;28;20461;-71
2023/03/08 10:14:58;;;;;;;9.60;2.80;;;;;;;5.08;65.20;99329.34;5075932;28;20455;-70
2023/03/08 10:17:32;;;;;;;5.00;1.30;;;;;;;5.25;65.99;99331.47;5075822;28;20471;-70
2023/03/08 10:20:06;;;;;;;9.03;2.87;;;;;;;5.30;66.09;99318.72;5076123;28;20843;-70
2023/03/08 10:22:37;;;;;;;7.80;2.60;;;;;;;5.33;64.19;99322.72;5076047;28;20429;-71
2023/03/08 10:25:19;;;;;;;7.33;2.50;;;;;;;5.23;62.91;99321.03;5075663;28;20473;-71
2023/03/08 10:27:50;;;;;;;22.53;7.33;;;;;;;5.26;63.25;99322.31;5075915;28;20503;-71
2023/03/08 10:30:25;;;;;;;9.87;4.10;;;;;;;5.30;63.73;99315.25;5075732;28;20422;-71
2023/03/08 10:32:58;;;;;;;8.90;2.27;;;;;;;5.32;65.00;99313.88;5075632;28;20466;-71
2023/03/08 10:35:35;;;;;;;9.33;2.73;;;;;;;5.42;64.49;99318.25;5075829;28;20421;-71
2023/03/08 10:38:02;;;;;;;8.40;2.67;;;;;;;5.57;65.64;99327.88;5075853;28;20501;-70
2023/03/08 10:40:29;;;;;;;11.80;3.60;;;;;;;5.57;62.89;99317.16;5075874;28;20473;-71
2023/03/08 10:42:59;;;;;;;10.70;4.53;;;;;;;5.48;62.95;99314.34;5075875;28;20859;-71
2023/03/08 10:45:28;;;;;;;6.37;1.97;;;;;;;5.60;62.26;99315.75;5075353;28;21053;-71
2023/03/08 10:47:57;;;;;;;8.57;3.10;;;;;;;5.72;61.46;99308.00;5076033;28;20461;-71
2023/03/08 10:50:25;;;;;;;7.70;2.37;;;;;;;5.81;61.06;99301.63;5075851;28;20531;-71
2023/03/08 10:52:53;;;;;;;8.73;2.60;;;;;;;5.92;61.19;99302.22;5075743;28;20521;-71
2023/03/08 10:55:22;;;;;;;9.73;2.53;;;;;;;6.09;63.76;99298.09;5075550;28;20445;-71
2023/03/08 10:57:51;;;;;;;7.73;2.60;;;;;;;6.25;64.13;99299.38;5075023;28;20552;-71
2023/03/08 11:00:30;;;;;;;7.10;2.40;;;;;;;6.44;60.30;99291.91;5075346;28;20445;-71
2023/03/08 11:03:19;;;;;;;5.90;1.50;;;;;;;6.20;61.40;99278.78;5075480;28;20425;-71
2023/03/08 11:05:54;;;;;;;6.87;2.30;;;;;;;6.46;61.16;99283.53;5068045;28;20485;-71
2023/03/08 11:08:25;;;;;;;7.63;2.77;;;;;;;6.61;60.63;99290.44;5074746;28;20460;-71
2023/03/08 11:11:09;;;;;;;7.13;2.40;;;;;;;6.55;59.61;99285.19;5074927;28;20894;-71
2023/03/08 11:13:38;;;;;;;6.87;1.80;;;;;;;6.66;61.26;99284.94;5074384;28;20842;-71
2023/03/08 11:16:32;;;;;;;7.13;2.37;;;;;;;6.46;56.74;99273.59;5074988;28;21022;-71
2023/03/08 11:19:07;;;;;;;7.00;2.20;;;;;;;6.36;57.23;99279.19;5029925;28;20520;-71
2023/03/08 11:21:46;;;;;;;7.00;2.03;;;;;;;6.27;57.94;99260.31;5074944;28;20929;-71
2023/03/08 11:24:31;;;;;;;8.37;2.17;;;;;;;6.25;58.82;99259.81;5074866;28;20898;-71
2023/03/08 11:27:17;;;;;;;8.40;2.10;;;;;;;6.21;58.85;99256.16;5075194;28;20519;-71
2023/03/08 11:29:57;;;;;;;11.97;1.87;;;;;;;6.10;57.53;99254.78;5075112;28;20432;-71
2023/03/08 11:32:42;;;;;;;6.50;2.20;;;;;;;6.07;60.52;99253.53;5075478;28;20463;-70
2023/03/08 11:35:23;;;;;;;8.10;2.13;;;;;;;6.16;62.30;99250.91;5074743;28;20500;-71
2023/03/08 11:37:57;;;;;;;6.33;1.80;;;;;;;6.36;62.43;99240.75;5075254;28;20836;-72